createdAt,value
2023-07-12T00:01:01.603Z,1.45
2023-07-12T00:02:04.745Z,1.38
2023-07-12T00:03:08.584Z,1.20
2023-07-12T00:04:12.890Z,1.60
2023-07-12T00:05:17.436Z,1.13
2023-07-12T00:06:21.829Z,1.20
2023-07-12T00:07:25.546Z,1.27
2023-07-12T00:08:30.109Z,1.10
2023-07-12T00:09:33.811Z,1.17
2023-07-12T00:10:37.318Z,1.30
2023-07-12T00:11:41.100Z,1.30
2023-07-12T00:12:44.178Z,1.10
2023-07-12T00:13:48.025Z,1.10
2023-07-12T00:14:50.768Z,1.20
2023-07-12T00:15:55.655Z,1.02
2023-07-12T00:16:58.584Z,1.25
2023-07-12T00:18:02.811Z,1.00
2023-07-12T00:19:06.524Z,1.25
2023-07-12T00:21:25.672Z,1.10
2023-07-12T00:22:28.622Z,1.17
2023-07-12T00:23:32.382Z,1.48
2023-07-12T00:24:35.083Z,1.20
2023-07-12T00:25:39.307Z,0.90
2023-07-12T00:26:42.143Z,0.90
2023-07-12T00:27:46.051Z,0.70
2023-07-12T00:28:48.900Z,1.00
2023-07-12T00:29:52.730Z,1.38
2023-07-12T00:30:57.943Z,1.25
2023-07-12T00:32:01.698Z,1.13
2023-07-12T00:33:10.809Z,1.45
2023-07-12T00:34:14.609Z,1.30
2023-07-12T00:35:21.417Z,1.20
2023-07-12T00:36:27.012Z,1.50
2023-07-12T00:37:29.764Z,1.23
2023-07-12T00:38:34.525Z,0.95
2023-07-12T00:39:37.548Z,1.08
2023-07-12T00:41:03.961Z,0.90
2023-07-12T00:42:14.613Z,0.90
2023-07-12T00:43:28.527Z,0.82
2023-07-12T00:44:36.186Z,1.13
2023-07-12T00:45:40.848Z,1.50
2023-07-12T00:46:48.770Z,1.90
2023-07-12T00:47:52.608Z,2.20
2023-07-12T00:48:57.646Z,2.25
2023-07-12T00:50:02.779Z,3.00
2023-07-12T00:51:31.982Z,2.50
2023-07-12T00:52:37.561Z,2.30
2023-07-12T00:53:40.271Z,2.33
2023-07-12T00:54:54.917Z,2.83
2023-07-12T00:56:04.463Z,2.13
2023-07-12T00:57:09.550Z,1.42
2023-07-12T00:58:12.344Z,1.63
2023-07-12T00:59:22.585Z,1.65
2023-07-12T01:00:25.576Z,1.60
2023-07-12T01:01:29.810Z,1.75
2023-07-12T01:02:33.016Z,2.10
2023-07-12T01:03:40.311Z,1.67
2023-07-12T01:04:46.991Z,1.60
2023-07-12T01:05:52.045Z,1.98
2023-07-12T01:06:56.503Z,2.05
2023-07-12T01:08:00.239Z,1.90
2023-07-12T01:09:14.871Z,1.83
2023-07-12T01:10:17.665Z,1.73
2023-07-12T01:11:22.963Z,1.40
2023-07-12T01:12:26.204Z,1.98
2023-07-12T01:13:31.295Z,1.35
2023-07-12T01:14:35.022Z,1.40
2023-07-12T01:15:41.388Z,1.27
2023-07-12T01:16:50.044Z,1.50
2023-07-12T01:17:53.090Z,1.25
2023-07-12T01:18:57.041Z,1.40
2023-07-12T01:19:59.858Z,1.30
2023-07-12T01:21:10.886Z,2.20
2023-07-12T01:22:14.590Z,1.45
2023-07-12T01:23:18.539Z,1.70
2023-07-12T01:24:22.590Z,1.60
2023-07-12T01:25:39.011Z,1.48
2023-07-12T01:26:44.305Z,1.50
2023-07-12T01:27:47.985Z,1.30
2023-07-12T01:28:53.265Z,1.40
2023-07-12T01:29:57.510Z,1.50
2023-07-12T01:31:00.294Z,1.63
2023-07-12T01:32:04.378Z,1.50
2023-07-12T01:33:07.643Z,1.50
2023-07-12T01:34:12.087Z,1.40
2023-07-12T01:35:15.108Z,1.50
2023-07-12T01:36:19.777Z,1.30
2023-07-12T01:37:23.571Z,1.20
2023-07-12T01:38:28.654Z,1.20
2023-07-12T01:39:34.207Z,1.23
2023-07-12T01:40:36.793Z,1.00
2023-07-12T01:42:44.510Z,1.40
2023-07-12T01:43:48.404Z,1.10
2023-07-12T01:44:51.243Z,1.10
2023-07-12T01:45:57.882Z,1.05
2023-07-12T01:47:00.583Z,1.20
2023-07-12T01:48:04.612Z,1.55
2023-07-12T01:49:07.276Z,1.60
2023-07-12T01:50:12.466Z,1.20
2023-07-12T01:51:16.613Z,1.30
2023-07-12T01:52:21.906Z,1.35
2023-07-12T01:53:24.755Z,1.33
2023-07-12T01:54:29.614Z,1.60
2023-07-12T01:55:32.432Z,1.20
2023-07-12T01:56:36.257Z,1.23
2023-07-12T01:57:39.246Z,1.27
2023-07-12T01:58:43.228Z,1.05
2023-07-12T01:59:45.874Z,1.92
2023-07-12T02:00:50.026Z,1.10
2023-07-12T02:01:54.024Z,1.30
2023-07-12T02:02:56.922Z,1.60
2023-07-12T02:04:00.832Z,1.30
2023-07-12T02:05:03.630Z,1.30
2023-07-12T02:06:07.582Z,1.30
2023-07-12T02:07:10.394Z,1.02
2023-07-12T02:08:16.010Z,1.10
2023-07-12T02:09:19.003Z,1.20
2023-07-12T02:10:23.046Z,1.20
2023-07-12T02:11:26.359Z,1.30
2023-07-12T02:12:30.854Z,1.30
2023-07-12T02:13:33.872Z,1.40
2023-07-12T02:14:37.812Z,1.73
2023-07-12T02:15:41.166Z,1.30
2023-07-12T02:16:45.178Z,1.55
2023-07-12T02:17:49.318Z,1.35
2023-07-12T02:18:53.238Z,1.52
2023-07-12T02:19:56.097Z,1.30
2023-07-12T02:20:59.939Z,1.10
2023-07-12T02:22:02.776Z,1.38
2023-07-12T02:23:07.637Z,1.35
2023-07-12T02:24:12.321Z,1.30
2023-07-12T02:25:17.487Z,1.33
2023-07-12T02:26:20.264Z,1.40
2023-07-12T02:27:24.274Z,1.30
2023-07-12T02:28:26.925Z,1.42
2023-07-12T02:29:30.914Z,1.10
2023-07-12T02:30:34.177Z,1.30
2023-07-12T02:31:38.417Z,1.30
2023-07-12T02:32:41.609Z,1.20
2023-07-12T02:33:45.411Z,1.40
2023-07-12T02:35:52.756Z,1.00
2023-07-12T02:36:55.478Z,1.20
2023-07-12T02:37:59.643Z,1.23
2023-07-12T02:39:02.542Z,1.30
2023-07-12T02:40:10.022Z,1.17
2023-07-12T02:41:12.944Z,1.10
2023-07-12T02:42:16.969Z,1.40
2023-07-12T02:43:20.266Z,1.10
2023-07-12T02:44:24.496Z,1.13
2023-07-12T02:45:27.337Z,1.08
2023-07-12T02:46:31.113Z,0.93
2023-07-12T02:47:34.317Z,1.25
2023-07-12T02:48:38.509Z,1.20
2023-07-12T02:49:41.678Z,1.20
2023-07-12T02:50:45.418Z,1.10
2023-07-12T02:51:48.326Z,0.82
2023-07-12T02:52:52.168Z,0.93
2023-07-12T02:53:55.006Z,1.20
2023-07-12T02:54:58.756Z,1.08
2023-07-12T02:56:04.757Z,1.10
2023-07-12T02:57:11.252Z,1.30
2023-07-12T02:58:14.474Z,0.90
2023-07-12T02:59:18.452Z,1.20
2023-07-12T03:00:22.438Z,1.00
2023-07-12T03:01:27.185Z,0.90
2023-07-12T03:02:30.613Z,1.00
2023-07-12T03:03:34.362Z,1.20
2023-07-12T03:04:37.982Z,1.30
2023-07-12T03:05:42.628Z,1.10
2023-07-12T03:06:45.843Z,0.90
2023-07-12T03:07:49.666Z,1.20
2023-07-12T03:08:52.388Z,0.85
2023-07-12T03:09:58.420Z,1.20
2023-07-12T03:11:03.924Z,1.23
2023-07-12T03:12:09.017Z,1.40
2023-07-12T03:13:11.799Z,0.95
2023-07-12T03:14:17.907Z,1.10
2023-07-12T03:15:21.984Z,1.00
2023-07-12T03:16:26.041Z,1.00
2023-07-12T03:17:29.142Z,1.08
2023-07-12T03:18:33.337Z,1.10
2023-07-12T03:19:36.578Z,1.10
2023-07-12T03:20:40.422Z,1.23
2023-07-12T03:21:43.701Z,0.90
2023-07-12T03:22:47.486Z,0.90
2023-07-12T03:23:50.271Z,1.08
2023-07-12T03:24:54.023Z,1.27
2023-07-12T03:25:57.111Z,1.20
2023-07-12T03:27:02.345Z,1.10
2023-07-12T03:28:05.340Z,1.08
2023-07-12T03:29:09.176Z,0.77
2023-07-12T03:30:12.491Z,0.85
2023-07-12T03:31:18.686Z,1.00
2023-07-12T03:32:21.537Z,0.88
2023-07-12T03:33:25.406Z,0.82
2023-07-12T03:34:28.217Z,0.90
2023-07-12T03:35:31.984Z,1.15
2023-07-12T03:36:36.171Z,0.90
2023-07-12T03:37:38.872Z,1.20
2023-07-12T03:38:42.817Z,1.10
2023-07-12T03:39:45.635Z,0.93
2023-07-12T03:40:48.483Z,1.23
2023-07-12T03:41:52.492Z,0.80
2023-07-12T03:42:56.747Z,1.08
2023-07-12T03:44:00.483Z,0.93
2023-07-12T03:45:03.475Z,1.00
2023-07-12T03:46:08.495Z,1.00
2023-07-12T03:47:11.369Z,1.20
2023-07-12T03:48:15.410Z,1.20
2023-07-12T03:49:18.291Z,0.90
2023-07-12T03:50:22.259Z,1.10
2023-07-12T03:51:25.060Z,1.33
2023-07-12T03:52:28.926Z,1.30
2023-07-12T03:53:31.624Z,1.08
2023-07-12T03:54:35.386Z,1.33
2023-07-12T03:55:41.461Z,1.23
2023-07-12T03:56:45.076Z,1.10
2023-07-12T03:57:47.899Z,1.23
2023-07-12T03:58:53.199Z,1.08
2023-07-12T03:59:56.060Z,1.20
2023-07-12T04:01:04.190Z,1.35
2023-07-12T04:02:07.415Z,1.10
2023-07-12T04:03:14.060Z,1.30
2023-07-12T04:04:16.828Z,1.30
2023-07-12T04:05:20.812Z,1.20
2023-07-12T04:06:23.530Z,1.40
2023-07-12T04:07:27.353Z,1.20
2023-07-12T04:08:30.424Z,1.20
2023-07-12T04:09:34.172Z,1.10
2023-07-12T04:10:37.312Z,1.17
2023-07-12T04:11:42.757Z,1.00
2023-07-12T04:12:45.573Z,1.10
2023-07-12T04:13:49.452Z,1.10
2023-07-12T04:14:54.115Z,0.95
2023-07-12T04:15:59.592Z,1.10
2023-07-12T04:17:02.509Z,1.20
2023-07-12T04:18:06.572Z,1.25
2023-07-12T04:19:09.652Z,1.15
2023-07-12T04:20:14.351Z,1.00
2023-07-12T04:21:17.455Z,0.90
2023-07-12T04:22:21.195Z,1.00
2023-07-12T04:23:23.909Z,1.13
2023-07-12T04:24:27.776Z,1.02
2023-07-12T04:25:30.524Z,1.10
2023-07-12T04:26:34.225Z,1.10
2023-07-12T04:27:39.168Z,1.10
2023-07-12T04:28:44.483Z,1.10
2023-07-12T04:29:47.432Z,0.77
2023-07-12T04:30:52.658Z,1.15
2023-07-12T04:31:56.700Z,0.82
2023-07-12T04:32:59.414Z,1.02
2023-07-12T04:34:03.334Z,1.00
2023-07-12T04:35:07.237Z,1.20
2023-07-12T04:36:13.503Z,1.10
2023-07-12T04:37:18.378Z,0.90
2023-07-12T04:38:22.199Z,1.10
2023-07-12T04:41:30.831Z,0.98
2023-07-12T04:42:34.698Z,0.88
2023-07-12T04:43:37.547Z,1.10
2023-07-12T04:44:41.666Z,0.85
2023-07-12T04:45:46.674Z,0.80
2023-07-12T04:46:52.181Z,1.00
2023-07-12T04:47:54.950Z,1.10
2023-07-12T04:48:58.844Z,1.02
2023-07-12T04:50:01.814Z,0.80
2023-07-12T04:51:08.549Z,0.88
2023-07-12T04:52:13.002Z,0.90
2023-07-12T04:53:17.020Z,0.82
2023-07-12T04:54:19.706Z,1.00
2023-07-12T04:55:26.262Z,0.90
2023-07-12T04:56:29.360Z,1.00
2023-07-12T04:57:33.421Z,0.98
2023-07-12T04:58:36.209Z,1.20
2023-07-12T04:59:40.250Z,0.70
2023-07-12T05:00:44.640Z,0.85
2023-07-12T05:01:49.063Z,0.77
2023-07-12T05:02:53.627Z,1.10
2023-07-12T05:03:57.750Z,0.90
2023-07-12T05:05:00.440Z,0.80
2023-07-12T05:06:17.889Z,0.88
2023-07-12T05:07:29.788Z,0.85
2023-07-12T05:08:33.870Z,0.98
2023-07-12T05:09:36.727Z,1.10
2023-07-12T05:10:40.557Z,0.90
2023-07-12T05:11:43.475Z,1.00
2023-07-12T05:12:48.183Z,0.80
2023-07-12T05:13:50.847Z,0.93
2023-07-12T05:14:54.954Z,0.90
2023-07-12T05:15:58.012Z,0.70
2023-07-12T05:17:02.064Z,0.95
2023-07-12T05:18:07.076Z,0.73
2023-07-12T05:19:11.038Z,0.80
2023-07-12T05:20:14.841Z,1.08
2023-07-12T05:21:21.427Z,0.95
2023-07-12T05:22:24.329Z,0.60
2023-07-12T05:23:28.310Z,1.10
2023-07-12T05:24:31.161Z,0.90
2023-07-12T05:25:35.083Z,0.88
2023-07-12T05:26:38.011Z,1.10
2023-07-12T05:27:42.129Z,1.10
2023-07-12T05:28:44.915Z,0.90
2023-07-12T05:29:47.713Z,0.77
2023-07-12T05:30:52.155Z,0.88
2023-07-12T05:31:55.071Z,0.73
2023-07-12T05:32:58.891Z,0.70
2023-07-12T05:34:03.205Z,0.80
2023-07-12T05:35:07.745Z,0.80
2023-07-12T05:36:10.937Z,0.85
2023-07-12T05:37:14.007Z,0.80
2023-07-12T05:38:18.935Z,0.77
2023-07-12T05:39:21.669Z,1.02
2023-07-12T05:40:25.929Z,0.73
2023-07-12T05:41:28.759Z,0.73
2023-07-12T05:42:32.595Z,0.85
2023-07-12T05:43:35.428Z,1.10
2023-07-12T05:44:39.351Z,0.82
2023-07-12T05:45:42.869Z,0.90
2023-07-12T05:46:47.458Z,0.80
2023-07-12T05:47:51.035Z,0.80
2023-07-12T05:48:54.968Z,0.98
2023-07-12T05:49:59.191Z,0.63
2023-07-12T05:51:05.459Z,0.88
2023-07-12T05:52:08.785Z,0.80
2023-07-12T05:53:12.816Z,0.95
2023-07-12T05:54:15.530Z,0.80
2023-07-12T05:55:20.649Z,0.80
2023-07-12T05:56:23.296Z,0.90
2023-07-12T05:57:27.480Z,0.70
2023-07-12T05:58:30.313Z,0.47
2023-07-12T05:59:34.204Z,0.70
2023-07-12T06:00:37.252Z,0.70
2023-07-12T06:01:41.050Z,1.25
2023-07-12T06:02:43.831Z,0.52
2023-07-12T06:03:47.839Z,0.80
2023-07-12T06:04:50.695Z,1.10
2023-07-12T06:05:56.349Z,0.70
2023-07-12T06:06:59.046Z,0.80
2023-07-12T06:08:02.966Z,0.82
2023-07-12T06:09:05.995Z,0.80
2023-07-12T06:10:10.813Z,1.05
2023-07-12T06:11:13.948Z,0.70
2023-07-12T06:12:17.892Z,1.00
2023-07-12T06:13:20.744Z,0.80
2023-07-12T06:14:24.868Z,0.65
2023-07-12T06:15:27.710Z,0.82
2023-07-12T06:16:31.834Z,0.57
2023-07-12T06:17:34.597Z,0.45
2023-07-12T06:18:38.556Z,0.45
2023-07-12T06:19:41.575Z,0.40
2023-07-12T06:20:45.350Z,0.80
2023-07-12T06:21:49.366Z,0.60
2023-07-12T06:22:53.256Z,0.70
2023-07-12T06:23:58.702Z,0.90
2023-07-12T06:25:02.505Z,0.60
2023-07-12T06:26:07.363Z,0.70
2023-07-12T06:27:11.260Z,0.90
2023-07-12T06:28:14.085Z,0.80
2023-07-12T06:29:18.083Z,1.00
2023-07-12T06:30:20.954Z,0.60
2023-07-12T06:31:23.924Z,0.88
2023-07-12T06:32:27.908Z,1.00
2023-07-12T06:33:32.341Z,0.40
2023-07-12T06:34:36.353Z,0.70
2023-07-12T06:35:40.695Z,0.43
2023-07-12T06:36:44.383Z,0.55
2023-07-12T06:37:48.581Z,0.45
2023-07-12T06:38:52.530Z,0.70
2023-07-12T06:39:55.628Z,0.70
2023-07-12T06:41:00.068Z,0.63
2023-07-12T06:42:02.924Z,0.52
2023-07-12T06:43:11.566Z,0.55
2023-07-12T06:44:15.718Z,0.80
2023-07-12T06:45:19.618Z,0.60
2023-07-12T06:46:22.505Z,0.77
2023-07-12T06:47:26.279Z,0.65
2023-07-12T06:48:29.509Z,0.47
2023-07-12T06:49:32.251Z,0.65
2023-07-12T06:50:36.138Z,0.20
2023-07-12T06:51:38.817Z,0.63
2023-07-12T06:52:42.674Z,0.57
2023-07-12T06:53:46.787Z,0.55
2023-07-12T06:54:50.734Z,0.98
2023-07-12T06:55:53.693Z,0.60
2023-07-12T06:56:57.519Z,0.35
2023-07-12T06:58:00.241Z,0.63
2023-07-12T06:59:04.015Z,0.63
2023-07-12T07:01:13.910Z,0.73
2023-07-12T07:02:16.885Z,1.42
2023-07-12T07:03:20.845Z,0.43
2023-07-12T07:04:23.900Z,0.80
2023-07-12T07:05:27.621Z,0.80
2023-07-12T07:06:30.835Z,0.93
2023-07-12T07:07:34.697Z,0.70
2023-07-12T07:08:37.462Z,0.88
2023-07-12T07:09:42.836Z,0.82
2023-07-12T07:10:49.514Z,0.82
2023-07-12T07:11:53.308Z,0.77
2023-07-12T07:12:56.160Z,0.75
2023-07-12T07:13:59.957Z,0.73
2023-07-12T07:15:02.769Z,0.80
2023-07-12T07:17:12.314Z,1.00
2023-07-12T07:18:16.478Z,0.77
2023-07-12T07:19:19.194Z,0.90
2023-07-12T07:20:23.409Z,1.02
2023-07-12T07:21:26.181Z,0.73
2023-07-12T07:22:30.228Z,0.73
2023-07-12T07:23:34.688Z,0.50
2023-07-12T07:24:38.544Z,0.80
2023-07-12T07:25:43.530Z,0.80
2023-07-12T07:26:48.000Z,0.50
2023-07-12T07:27:50.710Z,0.55
2023-07-12T07:28:54.535Z,0.85
2023-07-12T07:29:57.405Z,0.63
2023-07-12T07:31:01.832Z,0.70
2023-07-12T07:32:06.793Z,0.50
2023-07-12T07:33:13.003Z,0.60
2023-07-12T07:34:16.372Z,0.60
2023-07-12T07:35:20.274Z,0.63
2023-07-12T07:36:22.998Z,0.70
2023-07-12T07:37:26.899Z,0.70
2023-07-12T07:38:30.141Z,0.60
2023-07-12T07:39:34.031Z,1.00
2023-07-12T07:41:45.035Z,0.68
2023-07-12T07:42:47.990Z,0.65
2023-07-12T07:43:51.861Z,0.85
2023-07-12T07:44:54.594Z,0.57
2023-07-12T07:45:58.422Z,0.50
2023-07-12T07:47:01.336Z,0.90
2023-07-12T07:48:05.867Z,0.80
2023-07-12T07:49:08.809Z,0.80
2023-07-12T07:50:12.708Z,0.68
2023-07-12T07:51:16.278Z,0.88
2023-07-12T07:52:19.973Z,0.52
2023-07-12T07:53:22.855Z,0.70
2023-07-12T07:54:29.609Z,0.50
2023-07-12T07:55:33.448Z,0.50
2023-07-12T07:56:37.224Z,0.60
2023-07-12T07:57:41.562Z,0.60
2023-07-12T07:58:45.305Z,0.70
2023-07-12T07:59:48.096Z,0.63
2023-07-12T08:00:53.646Z,0.68
2023-07-12T08:01:56.373Z,0.77
2023-07-12T08:03:00.253Z,0.65
2023-07-12T08:04:04.905Z,0.60
2023-07-12T08:05:09.617Z,0.70
2023-07-12T08:06:12.477Z,0.63
2023-07-12T08:07:16.225Z,0.75
2023-07-12T08:08:20.986Z,0.50
2023-07-12T08:09:24.754Z,0.70
2023-07-12T08:10:28.290Z,0.70
2023-07-12T08:11:33.298Z,0.57
2023-07-12T08:12:38.277Z,0.50
2023-07-12T08:13:43.833Z,0.30
2023-07-12T08:14:47.091Z,0.40
2023-07-12T08:15:50.975Z,0.32
2023-07-12T08:16:53.910Z,0.38
2023-07-12T08:17:57.959Z,0.40
2023-07-12T08:19:03.086Z,0.50
2023-07-12T08:20:13.586Z,0.40
2023-07-12T08:21:16.476Z,0.68
2023-07-12T08:22:20.568Z,0.77
2023-07-12T08:23:24.145Z,0.68
2023-07-12T08:24:27.815Z,0.77
2023-07-12T08:25:31.114Z,0.63
2023-07-12T08:26:34.992Z,0.60
2023-07-12T08:27:37.729Z,0.80
2023-07-12T08:28:42.857Z,0.52
2023-07-12T08:29:45.948Z,0.90
2023-07-12T08:30:50.043Z,0.63
2023-07-12T08:31:55.882Z,0.47
2023-07-12T08:32:59.885Z,0.52
2023-07-12T08:34:02.753Z,0.68
2023-07-12T08:35:06.124Z,0.80
2023-07-12T08:37:13.102Z,0.73
2023-07-12T08:38:16.927Z,1.20
2023-07-12T08:39:19.650Z,0.80
2023-07-12T08:40:24.133Z,0.80
2023-07-12T08:41:27.648Z,0.65
2023-07-12T08:42:38.122Z,0.60
2023-07-12T08:43:42.238Z,0.60
2023-07-12T08:44:46.079Z,0.50
2023-07-12T08:45:50.935Z,0.60
2023-07-12T08:46:58.242Z,0.68
2023-07-12T08:48:05.202Z,0.98
2023-07-12T08:49:11.201Z,0.40
2023-07-12T08:50:15.518Z,0.75
2023-07-12T08:51:26.842Z,0.90
2023-07-12T08:52:33.880Z,0.80
2023-07-12T08:53:41.531Z,0.65
2023-07-12T08:54:44.817Z,0.60
2023-07-12T08:55:49.360Z,0.55
2023-07-12T08:57:00.046Z,0.80
2023-07-12T08:58:17.231Z,0.73
2023-07-12T08:59:21.925Z,0.57
2023-07-12T09:00:28.747Z,1.00
2023-07-12T09:01:45.782Z,0.77
2023-07-12T09:02:50.115Z,0.50
2023-07-12T09:03:54.154Z,0.77
2023-07-12T09:04:59.539Z,0.80
2023-07-12T09:06:03.761Z,0.80
2023-07-12T09:07:06.426Z,1.00
2023-07-12T09:08:19.864Z,1.10
2023-07-12T09:09:23.694Z,1.00
2023-07-12T09:10:34.855Z,1.15
2023-07-12T09:11:37.583Z,1.30
2023-07-12T09:12:41.550Z,1.38
2023-07-12T09:13:45.505Z,1.40
2023-07-12T09:14:56.344Z,1.40
2023-07-12T09:15:59.594Z,1.15
2023-07-12T09:17:03.385Z,1.30
2023-07-12T09:18:09.204Z,1.40
2023-07-12T09:19:18.726Z,1.60
2023-07-12T09:20:25.429Z,1.42
2023-07-12T09:21:33.235Z,1.58
2023-07-12T09:22:38.743Z,1.90
2023-07-12T09:23:44.185Z,1.70
2023-07-12T09:24:51.623Z,1.83
2023-07-12T09:25:58.359Z,1.67
2023-07-12T09:27:05.407Z,2.00
2023-07-12T09:28:14.335Z,1.77
2023-07-12T09:29:21.690Z,2.10
2023-07-12T09:30:31.181Z,2.13
2023-07-12T09:31:37.522Z,2.20
2023-07-12T09:32:44.569Z,2.00
2023-07-12T09:33:52.670Z,2.00
2023-07-12T09:34:56.922Z,2.30
2023-07-12T09:36:06.384Z,1.90
2023-07-12T09:37:17.208Z,2.15
2023-07-12T09:38:24.377Z,2.00
2023-07-12T09:39:29.084Z,2.00
2023-07-12T09:40:39.119Z,2.20
2023-07-12T09:41:52.021Z,1.98
2023-07-12T09:42:58.953Z,1.95
2023-07-12T09:44:03.728Z,2.17
2023-07-12T09:45:12.713Z,1.50
2023-07-12T09:46:32.215Z,1.80
2023-07-12T09:47:47.741Z,1.90
2023-07-12T09:48:55.858Z,1.77
2023-07-12T09:50:05.676Z,1.70
2023-07-12T09:51:28.889Z,2.10
2023-07-12T09:52:37.532Z,1.80
2023-07-12T09:53:44.910Z,1.92
2023-07-12T09:54:54.406Z,1.90
2023-07-12T09:56:09.511Z,1.85
2023-07-12T09:57:17.233Z,1.90
2023-07-12T09:58:30.667Z,1.67
2023-07-12T09:59:43.025Z,1.55
2023-07-12T10:00:55.945Z,1.50
2023-07-12T10:02:14.261Z,1.70
2023-07-12T10:03:23.488Z,1.60
2023-07-12T10:04:38.845Z,1.90
2023-07-12T10:05:46.672Z,1.70
2023-07-12T10:06:50.532Z,1.60
2023-07-12T10:07:58.999Z,1.60
2023-07-12T10:09:10.596Z,1.95
2023-07-12T10:10:24.239Z,1.90
2023-07-12T10:11:33.364Z,1.65
2023-07-12T10:12:46.890Z,1.70
2023-07-12T10:13:53.378Z,1.52
2023-07-12T10:14:57.699Z,1.50
2023-07-12T10:16:02.853Z,1.33
2023-07-12T10:17:17.633Z,1.30
2023-07-12T10:18:23.839Z,1.63
2023-07-12T10:19:32.761Z,1.60
2023-07-12T10:20:36.470Z,1.40
2023-07-12T10:22:45.931Z,1.17
2023-07-12T10:23:54.626Z,1.30
2023-07-12T10:25:00.113Z,1.20
2023-07-12T10:26:08.401Z,1.23
2023-07-12T10:27:18.682Z,1.40
2023-07-12T10:28:28.365Z,1.42
2023-07-12T10:29:43.526Z,1.55
2023-07-12T10:30:51.235Z,1.42
2023-07-12T10:31:58.547Z,1.60
2023-07-12T10:33:21.597Z,1.33
2023-07-12T10:34:31.170Z,1.40
2023-07-12T10:35:44.534Z,1.60
2023-07-12T10:36:50.695Z,1.77
2023-07-12T10:38:01.149Z,1.30
2023-07-12T10:39:05.658Z,1.30
2023-07-12T10:40:17.448Z,1.60
2023-07-12T10:41:24.544Z,1.55
2023-07-12T10:42:33.425Z,1.20
2023-07-12T10:43:39.599Z,1.98
2023-07-12T10:44:48.503Z,1.35
2023-07-12T10:45:54.426Z,1.30
2023-07-12T10:47:03.253Z,1.40
2023-07-12T10:48:10.451Z,1.38
2023-07-12T10:49:17.737Z,1.40
2023-07-12T10:50:28.372Z,1.40
2023-07-12T10:51:39.267Z,1.55
2023-07-12T10:53:00.914Z,1.65
2023-07-12T10:55:22.924Z,1.55
2023-07-12T10:56:29.197Z,1.50
2023-07-12T10:57:40.671Z,1.63
2023-07-12T10:58:52.210Z,1.40
2023-07-12T11:00:04.587Z,1.35
2023-07-12T11:01:35.002Z,1.42
2023-07-12T11:02:45.692Z,1.40
2023-07-12T11:04:08.308Z,1.00
2023-07-12T11:05:39.175Z,1.17
2023-07-12T11:06:58.667Z,0.98
2023-07-12T11:08:04.437Z,0.80
2023-07-12T11:09:11.839Z,0.90
2023-07-12T11:10:38.815Z,1.20
2023-07-12T11:11:47.803Z,1.20
2023-07-12T11:13:06.024Z,0.90
2023-07-12T11:14:19.082Z,1.00
2023-07-12T11:15:26.516Z,1.05
2023-07-12T11:16:30.944Z,1.00
2023-07-12T11:17:54.295Z,1.15
2023-07-12T11:18:59.758Z,0.90
2023-07-12T11:20:08.686Z,1.00
2023-07-12T11:21:29.067Z,1.00
2023-07-12T11:22:58.163Z,1.00
2023-07-12T11:24:30.879Z,0.90
2023-07-12T11:25:54.019Z,1.20
2023-07-12T11:26:58.765Z,1.08
2023-07-12T11:28:05.593Z,1.15
2023-07-12T11:29:28.771Z,1.30
2023-07-12T11:31:05.765Z,1.27
2023-07-12T11:32:22.108Z,1.27
2023-07-12T11:33:33.203Z,1.50
2023-07-12T11:34:40.319Z,1.40
2023-07-12T11:35:48.506Z,1.17
2023-07-12T11:36:56.425Z,1.17
2023-07-12T11:38:00.130Z,1.13
2023-07-12T11:39:04.686Z,1.20
2023-07-12T11:40:18.861Z,1.00
2023-07-12T11:41:24.874Z,0.93
2023-07-12T11:42:32.152Z,1.10
2023-07-12T11:43:38.453Z,1.00
2023-07-12T11:44:42.171Z,0.90
2023-07-12T11:45:45.034Z,0.90
2023-07-12T11:46:52.080Z,0.90
2023-07-12T11:47:55.900Z,1.08
2023-07-12T11:49:05.553Z,0.90
2023-07-12T11:50:17.879Z,0.90
2023-07-12T11:51:35.595Z,0.93
2023-07-12T11:52:38.823Z,0.82
2023-07-12T11:53:52.377Z,0.70
2023-07-12T11:54:55.614Z,0.90
2023-07-12T11:55:59.487Z,0.93
2023-07-12T11:57:03.955Z,1.20
2023-07-12T11:58:17.137Z,0.80
2023-07-12T11:59:23.227Z,0.98
2023-07-12T12:00:29.857Z,0.90
2023-07-12T12:01:32.536Z,0.90
2023-07-12T12:02:36.383Z,0.65
2023-07-12T12:03:39.186Z,0.88
2023-07-12T12:04:43.245Z,0.85
2023-07-12T12:05:50.000Z,0.80
2023-07-12T12:06:56.097Z,1.20
2023-07-12T12:08:00.807Z,1.13
2023-07-12T12:09:05.377Z,0.82
2023-07-12T12:10:21.863Z,1.10
2023-07-12T12:11:30.813Z,1.20
2023-07-12T12:12:34.617Z,0.90
2023-07-12T12:13:44.253Z,1.30
2023-07-12T12:14:50.718Z,1.30
2023-07-12T12:16:02.384Z,0.80
2023-07-12T12:17:13.653Z,0.90
2023-07-12T12:18:20.038Z,1.00
2023-07-12T12:19:28.919Z,0.93
2023-07-12T12:20:34.053Z,0.95
2023-07-12T12:21:48.658Z,1.00
2023-07-12T12:22:58.138Z,1.15
2023-07-12T12:24:17.315Z,1.00
2023-07-12T12:25:22.493Z,1.33
2023-07-12T12:26:28.707Z,0.98
2023-07-12T12:27:37.186Z,1.20
2023-07-12T12:28:42.518Z,1.20
2023-07-12T12:29:45.261Z,1.10
2023-07-12T12:30:58.705Z,1.23
2023-07-12T12:32:06.738Z,1.10
2023-07-12T12:33:24.686Z,1.00
2023-07-12T12:34:36.335Z,1.00
2023-07-12T12:35:48.484Z,1.17
2023-07-12T12:37:02.169Z,0.90
2023-07-12T12:38:19.853Z,1.00
2023-07-12T12:39:24.014Z,1.20
2023-07-12T12:40:27.973Z,0.88
2023-07-12T12:42:53.692Z,1.02
2023-07-12T12:43:58.629Z,0.88
2023-07-12T12:45:01.722Z,1.13
2023-07-12T12:46:21.250Z,1.00
2023-07-12T12:47:27.793Z,1.13
2023-07-12T12:48:57.438Z,0.90
2023-07-12T12:51:42.702Z,0.85
2023-07-12T12:53:51.890Z,1.10
2023-07-12T12:55:01.097Z,1.10
2023-07-12T12:59:46.347Z,1.08
2023-07-12T13:01:43.679Z,1.20
2023-07-12T13:04:45.677Z,1.00
2023-07-12T13:05:00.103Z,1.33
2023-07-12T13:06:08.849Z,1.40
2023-07-12T13:07:29.661Z,1.20
2023-07-12T13:17:01.089Z,1.30
2023-07-12T13:18:15.647Z,1.00
2023-07-12T13:20:32.349Z,1.33
2023-07-12T13:21:35.439Z,1.40
2023-07-12T13:22:40.020Z,1.45
2023-07-12T13:23:44.443Z,1.40
2023-07-12T13:24:48.949Z,1.38
2023-07-12T13:25:52.953Z,1.20
2023-07-12T13:26:56.976Z,1.23
2023-07-12T13:27:59.726Z,1.30
2023-07-12T13:29:02.618Z,1.30
2023-07-12T13:30:13.378Z,1.20
2023-07-12T13:31:20.015Z,1.30
2023-07-12T13:32:25.023Z,1.60
2023-07-12T13:33:29.350Z,1.30
2023-07-12T13:36:47.880Z,1.20
2023-07-12T13:38:05.196Z,1.60
2023-07-12T13:40:34.901Z,1.40
2023-07-12T13:42:57.778Z,1.77
2023-07-12T13:45:15.682Z,1.80
2023-07-12T13:46:20.449Z,1.60
2023-07-12T13:47:26.686Z,1.45
2023-07-12T13:48:30.923Z,1.42
2023-07-12T13:49:34.406Z,1.50
2023-07-12T13:50:38.132Z,1.58
2023-07-12T13:51:42.109Z,1.80
2023-07-12T13:52:46.220Z,1.35
2023-07-12T13:53:49.622Z,1.63
2023-07-12T13:54:55.172Z,1.70
2023-07-12T13:56:00.530Z,1.30
2023-07-12T13:57:08.753Z,1.30
2023-07-12T13:58:14.837Z,1.30
2023-07-12T13:59:19.725Z,1.35
2023-07-12T14:00:24.076Z,1.38
2023-07-12T14:01:43.313Z,1.20
2023-07-12T14:03:05.314Z,1.10
2023-07-12T14:06:54.629Z,1.10
2023-07-12T14:08:59.901Z,1.33
2023-07-12T14:10:16.467Z,1.42
2023-07-12T14:11:27.785Z,1.50
2023-07-12T14:12:31.983Z,1.42
2023-07-12T14:13:36.393Z,1.48
2023-07-12T14:14:39.367Z,1.38
2023-07-12T14:15:43.251Z,1.30
2023-07-12T14:16:46.139Z,1.25
2023-07-12T14:17:50.285Z,1.40
2023-07-12T14:18:53.395Z,1.52
2023-07-12T14:19:58.485Z,1.42
2023-07-12T14:21:01.337Z,1.45
2023-07-12T14:22:05.374Z,1.30
2023-07-12T14:23:12.123Z,1.30
2023-07-12T14:24:17.133Z,1.40
2023-07-12T14:25:23.311Z,1.38
2023-07-12T14:26:28.760Z,1.17
2023-07-12T14:27:34.184Z,1.50
2023-07-12T14:28:41.378Z,1.40
2023-07-12T14:31:57.440Z,1.70
2023-07-12T14:33:01.716Z,1.60
2023-07-12T14:34:06.012Z,2.08
2023-07-12T14:35:17.210Z,1.83
2023-07-12T14:36:22.713Z,1.60
2023-07-12T14:37:27.079Z,1.60
2023-07-12T14:38:29.920Z,1.80
2023-07-12T14:39:33.623Z,2.00
2023-07-12T14:40:38.033Z,1.80
2023-07-12T14:41:45.252Z,2.20
2023-07-12T14:42:48.622Z,2.08
2023-07-12T14:43:52.931Z,1.92
2023-07-12T14:44:56.161Z,2.00
2023-07-12T14:45:59.902Z,2.25
2023-07-12T14:47:02.775Z,1.98
2023-07-12T14:48:08.300Z,2.38
2023-07-12T14:49:11.028Z,2.10
2023-07-12T14:50:18.223Z,2.00
2023-07-12T14:51:24.789Z,2.33
2023-07-12T14:52:31.030Z,1.95
2023-07-12T14:53:34.003Z,2.00
2023-07-12T14:54:49.088Z,1.80
2023-07-12T14:56:01.052Z,1.80
2023-07-12T14:57:21.468Z,2.00
2023-07-12T14:58:28.060Z,1.90
2023-07-12T14:59:31.769Z,1.90
2023-07-12T15:00:34.819Z,2.00
2023-07-12T15:01:39.069Z,1.70
2023-07-12T15:02:42.427Z,1.83
2023-07-12T15:03:46.540Z,1.95
2023-07-12T15:04:50.896Z,1.77
2023-07-12T15:05:54.710Z,2.22
2023-07-12T15:06:57.643Z,1.90
2023-07-12T15:08:01.348Z,2.30
2023-07-12T15:09:08.771Z,2.30
2023-07-12T15:10:19.612Z,1.92
2023-07-12T15:11:27.609Z,2.00
2023-07-12T15:12:40.172Z,2.10
2023-07-12T15:13:43.116Z,1.98
2023-07-12T15:14:47.034Z,2.40
2023-07-12T15:15:50.027Z,2.10
2023-07-12T15:16:56.020Z,2.42
2023-07-12T15:18:01.596Z,2.60
2023-07-12T15:19:05.741Z,2.10
2023-07-12T15:20:12.148Z,2.10
2023-07-12T15:21:22.980Z,2.35